Readyville, Tennessee
Current Conditions -  °F | °C
As of 2:53 AM on Saturday 22 Nov 2014 (Local Time) from KBNA Reporting Station
Broken Clouds Broken Clouds  
Wind Chill: 43°   Ceiling: 10000
Heat Index: 47°   Visibility: 10mi
Dew Point: 33°   Wind: 9mph
Humidity: 59%   Direction: 160°SSE
Pressure: 30.36"   Gusts: NA
Location:  35.83°N, 86.17°W
Report Text: KBNA 220853Z 16008KT 10SM BKN100 08/01 A3036 RMK AO2 SLP279 T00830006 56001
Loading
Personal Weather Stations






























Interactive Weather Map New forecast layout! Learn more

10-Day Weather Forecast

Advertisements
Track Severe Weather on mobile